createdAt,value
2019-05-19T00:00:30.848Z,0
2019-05-19T00:01:34.833Z,0
2019-05-19T00:02:40.624Z,0
2019-05-19T00:03:44.649Z,0
2019-05-19T00:04:47.438Z,0
2019-05-19T00:05:49.618Z,0
2019-05-19T00:06:52.158Z,0
2019-05-19T00:07:55.242Z,0
2019-05-19T00:08:58.221Z,0
2019-05-19T00:10:01.483Z,0
2019-05-19T00:11:05.334Z,0
2019-05-19T00:12:08.296Z,0
2019-05-19T00:13:10.462Z,0
2019-05-19T00:14:14.565Z,0
2019-05-19T00:15:16.944Z,0
2019-05-19T00:16:19.359Z,0
2019-05-19T00:17:21.642Z,0
2019-05-19T00:18:23.921Z,0
2019-05-19T00:19:27.103Z,0
2019-05-19T00:20:30.122Z,0
2019-05-19T00:21:34.520Z,0
2019-05-19T00:22:36.826Z,0
2019-05-19T00:23:38.985Z,0
2019-05-19T00:24:41.497Z,0
2019-05-19T00:25:44.700Z,0
2019-05-19T00:26:46.791Z,0
2019-05-19T00:27:48.996Z,0
2019-05-19T00:28:51.121Z,0
2019-05-19T00:29:53.261Z,0
2019-05-19T00:30:55.380Z,0
2019-05-19T00:31:57.448Z,0
2019-05-19T00:32:59.614Z,0
2019-05-19T00:34:01.744Z,0
2019-05-19T00:35:04.495Z,0
2019-05-19T00:36:06.921Z,0
2019-05-19T00:37:09.987Z,0
2019-05-19T00:38:12.842Z,0
2019-05-19T00:39:16.673Z,0
2019-05-19T00:40:18.958Z,0
2019-05-19T00:41:21.244Z,0
2019-05-19T00:42:24.647Z,0
2019-05-19T00:43:26.761Z,0
2019-05-19T00:44:29.090Z,0
2019-05-19T00:45:31.202Z,0
2019-05-19T00:46:33.285Z,0
2019-05-19T00:47:35.890Z,0
2019-05-19T00:48:39.351Z,0
2019-05-19T00:49:41.896Z,0
2019-05-19T00:50:44.416Z,0
2019-05-19T00:51:46.489Z,0
2019-05-19T00:52:48.865Z,0
2019-05-19T00:53:51.241Z,0
2019-05-19T00:54:54.241Z,0
2019-05-19T00:55:56.959Z,0
2019-05-19T00:56:59.791Z,0
2019-05-19T00:58:01.998Z,0
2019-05-19T00:59:04.574Z,0
2019-05-19T01:00:07.084Z,0
2019-05-19T01:01:09.167Z,0
2019-05-19T01:02:11.451Z,0
2019-05-19T01:03:14.792Z,0
2019-05-19T01:04:17.467Z,0
2019-05-19T01:05:20.931Z,0
2019-05-19T01:06:23.914Z,0
2019-05-19T01:07:26.985Z,0
2019-05-19T01:08:29.619Z,0
2019-05-19T01:09:31.856Z,0
2019-05-19T01:10:33.958Z,0
2019-05-19T01:11:36.154Z,0
2019-05-19T01:12:38.370Z,0
2019-05-19T01:13:40.424Z,0
2019-05-19T01:14:42.949Z,0
2019-05-19T01:15:45.732Z,0
2019-05-19T01:16:48.262Z,0
2019-05-19T01:17:51.154Z,0
2019-05-19T01:18:53.807Z,0
2019-05-19T01:19:56.417Z,0
2019-05-19T01:20:58.918Z,0
2019-05-19T01:22:01.458Z,0
2019-05-19T01:23:03.559Z,0
2019-05-19T01:24:06.626Z,0
2019-05-19T01:25:19.385Z,0
2019-05-19T01:26:30.872Z,0
2019-05-19T01:27:42.604Z,0
2019-05-19T01:28:54.483Z,0
2019-05-19T01:30:06.156Z,0
2019-05-19T01:31:17.112Z,0
2019-05-19T01:32:28.033Z,0
2019-05-19T01:33:38.867Z,0
2019-05-19T01:34:51.898Z,0
2019-05-19T01:36:02.481Z,0
2019-05-19T01:37:12.776Z,0
2019-05-19T01:38:25.887Z,0
2019-05-19T01:39:38.072Z,0
2019-05-19T01:40:54.926Z,0
2019-05-19T01:42:08.408Z,0
2019-05-19T01:43:21.552Z,0
2019-05-19T01:44:31.926Z,0
2019-05-19T01:45:40.876Z,0
2019-05-19T01:46:49.975Z,0
2019-05-19T01:48:01.121Z,0
2019-05-19T01:49:11.262Z,0
2019-05-19T01:50:22.523Z,0
2019-05-19T01:51:33.761Z,0
2019-05-19T01:52:44.308Z,0
2019-05-19T01:53:56.160Z,0
2019-05-19T01:55:08.566Z,0
2019-05-19T01:56:20.983Z,0
2019-05-19T01:57:29.793Z,0
2019-05-19T01:58:39.470Z,0
2019-05-19T01:59:43.426Z,0
2019-05-19T02:00:53.151Z,0
2019-05-19T02:02:04.192Z,0
2019-05-19T02:03:14.628Z,0
2019-05-19T02:04:27.892Z,0
2019-05-19T02:05:38.201Z,0
2019-05-19T02:06:49.298Z,0
2019-05-19T02:07:58.609Z,0
2019-05-19T02:09:11.038Z,0
2019-05-19T02:10:23.092Z,0
2019-05-19T02:11:33.570Z,0
2019-05-19T02:12:43.479Z,0
2019-05-19T02:13:48.416Z,0
2019-05-19T02:14:54.091Z,0
2019-05-19T02:16:02.829Z,0
2019-05-19T02:17:06.352Z,0
2019-05-19T02:18:17.333Z,0
2019-05-19T02:19:23.229Z,0
2019-05-19T02:20:33.510Z,0
2019-05-19T02:21:42.606Z,0
2019-05-19T02:22:51.945Z,0
2019-05-19T02:24:01.600Z,0
2019-05-19T02:25:14.274Z,0
2019-05-19T02:26:22.864Z,0
2019-05-19T02:27:29.909Z,4
2019-05-19T02:28:38.479Z,4
2019-05-19T02:29:45.129Z,4
2019-05-19T02:30:48.261Z,0
2019-05-19T02:31:51.708Z,4
2019-05-19T02:32:54.013Z,4
2019-05-19T02:33:57.067Z,4
2019-05-19T02:34:59.289Z,4
2019-05-19T02:36:02.122Z,4
2019-05-19T02:37:04.827Z,8
2019-05-19T02:38:07.302Z,8
2019-05-19T02:39:09.648Z,12
2019-05-19T02:40:12.110Z,8
2019-05-19T02:41:14.316Z,16
2019-05-19T02:42:17.183Z,16
2019-05-19T02:43:19.412Z,16
2019-05-19T02:44:21.689Z,20
2019-05-19T02:45:23.865Z,24
2019-05-19T02:46:26.437Z,24
2019-05-19T02:47:28.862Z,28
2019-05-19T02:48:31.075Z,32
2019-05-19T02:49:33.606Z,40
2019-05-19T02:50:50.769Z,44
2019-05-19T02:51:55.360Z,48
2019-05-19T02:52:57.970Z,56
2019-05-19T02:54:00.202Z,64
2019-05-19T02:55:02.387Z,72
2019-05-19T02:56:05.416Z,84
2019-05-19T02:57:07.884Z,96
2019-05-19T02:58:10.092Z,108
2019-05-19T02:59:13.006Z,120
2019-05-19T03:00:15.517Z,132
2019-05-19T03:01:18.130Z,148
2019-05-19T03:02:20.724Z,164
2019-05-19T03:03:23.204Z,180
2019-05-19T03:04:25.445Z,200
2019-05-19T03:05:28.715Z,216
2019-05-19T03:06:30.883Z,232
2019-05-19T03:07:33.461Z,244
2019-05-19T03:08:36.054Z,260
2019-05-19T03:09:38.184Z,276
2019-05-19T03:10:41.093Z,292
2019-05-19T03:11:43.348Z,316
2019-05-19T03:12:45.840Z,336
2019-05-19T03:13:48.073Z,360
2019-05-19T03:14:50.670Z,384
2019-05-19T03:15:53.236Z,404
2019-05-19T03:16:55.745Z,436
2019-05-19T03:17:58.650Z,460
2019-05-19T03:19:01.164Z,488
2019-05-19T03:20:04.315Z,520
2019-05-19T03:21:10.706Z,548
2019-05-19T03:22:14.572Z,584
2019-05-19T03:23:16.761Z,612
2019-05-19T03:24:19.022Z,640
2019-05-19T03:25:21.210Z,676
2019-05-19T03:26:23.712Z,712
2019-05-19T03:27:25.902Z,748
2019-05-19T03:28:28.090Z,780
2019-05-19T03:29:30.381Z,816
2019-05-19T03:30:32.570Z,852
2019-05-19T03:31:34.759Z,884
2019-05-19T03:32:37.872Z,920
2019-05-19T03:33:40.439Z,956
2019-05-19T03:34:42.843Z,992
2019-05-19T03:35:45.115Z,1032
2019-05-19T03:36:47.397Z,1072
2019-05-19T03:37:49.514Z,1112
2019-05-19T03:38:52.079Z,1156
2019-05-19T03:39:54.256Z,1204
2019-05-19T03:40:56.561Z,1256
2019-05-19T03:41:59.537Z,1312
2019-05-19T03:43:02.041Z,1364
2019-05-19T03:44:04.626Z,1416
2019-05-19T03:45:06.811Z,1468
2019-05-19T03:46:09.013Z,1508
2019-05-19T03:47:12.299Z,1532
2019-05-19T03:48:15.082Z,1576
2019-05-19T03:49:17.634Z,1628
2019-05-19T03:50:20.090Z,1680
2019-05-19T03:51:30.585Z,1712
2019-05-19T03:52:34.380Z,1776
2019-05-19T03:53:36.562Z,1828
2019-05-19T03:54:38.699Z,1860
2019-05-19T03:55:41.278Z,1920
2019-05-19T03:56:44.288Z,1968
2019-05-19T03:57:46.784Z,1992
2019-05-19T03:58:49.326Z,2028
2019-05-19T03:59:51.484Z,2032
2019-05-19T04:00:53.702Z,2036
2019-05-19T04:01:55.950Z,2136
2019-05-19T04:02:58.428Z,2112
2019-05-19T04:04:00.927Z,2184
2019-05-19T04:05:03.916Z,2196
2019-05-19T04:06:06.566Z,2300
2019-05-19T04:07:08.681Z,2348
2019-05-19T04:08:11.453Z,2356
2019-05-19T04:09:17.045Z,2304
2019-05-19T04:10:19.757Z,2304
2019-05-19T04:11:21.929Z,2572
2019-05-19T04:12:24.526Z,2404
2019-05-19T04:13:27.669Z,2536
2019-05-19T04:14:30.257Z,2760
2019-05-19T04:15:33.143Z,2844
2019-05-19T04:16:35.700Z,3252
2019-05-19T04:17:38.681Z,3128
2019-05-19T04:18:41.634Z,3028
2019-05-19T04:19:43.839Z,2984
2019-05-19T04:20:46.005Z,2932
2019-05-19T04:21:49.730Z,2728
2019-05-19T04:22:52.408Z,2676
2019-05-19T04:23:54.914Z,2900
2019-05-19T04:24:57.132Z,3212
2019-05-19T04:25:59.364Z,3284
2019-05-19T04:27:02.113Z,3040
2019-05-19T04:28:04.645Z,3772
2019-05-19T04:29:06.989Z,3364
2019-05-19T04:30:09.549Z,3736
2019-05-19T04:31:12.190Z,3720
2019-05-19T04:32:14.664Z,5108
2019-05-19T04:33:17.455Z,4684
2019-05-19T04:34:19.653Z,4784
2019-05-19T04:35:22.107Z,5448
2019-05-19T04:36:24.669Z,4508
2019-05-19T04:37:27.123Z,4472
2019-05-19T04:38:29.946Z,4172
2019-05-19T04:39:32.800Z,4952
2019-05-19T04:40:35.003Z,4748
2019-05-19T04:41:40.127Z,5908
2019-05-19T04:42:43.290Z,5592
2019-05-19T04:43:46.252Z,4904
2019-05-19T04:44:48.466Z,4688
2019-05-19T04:45:50.659Z,5328
2019-05-19T04:46:53.235Z,4716
2019-05-19T04:47:55.982Z,5392
2019-05-19T04:48:58.875Z,5456
2019-05-19T04:50:02.148Z,5232
2019-05-19T04:51:04.404Z,4316
2019-05-19T04:52:07.581Z,5184
2019-05-19T04:53:10.303Z,4672
2019-05-19T04:54:12.573Z,5304
2019-05-19T04:55:14.760Z,6188
2019-05-19T04:56:19.589Z,5020
2019-05-19T04:57:22.221Z,5496
2019-05-19T04:58:24.440Z,5380
2019-05-19T04:59:26.631Z,4724
2019-05-19T05:00:29.397Z,4840
2019-05-19T05:01:31.545Z,6120
2019-05-19T05:02:34.055Z,5260
2019-05-19T05:03:36.721Z,5432
2019-05-19T05:04:39.517Z,6440
2019-05-19T05:05:42.059Z,5568
2019-05-19T05:06:44.948Z,5476
2019-05-19T05:07:47.401Z,5828
2019-05-19T05:08:49.950Z,5328
2019-05-19T05:09:52.173Z,5172
2019-05-19T05:10:54.418Z,5760
2019-05-19T05:11:56.589Z,6476
2019-05-19T05:12:59.159Z,7036
2019-05-19T05:14:01.953Z,7536
2019-05-19T05:15:04.145Z,7944
2019-05-19T05:16:06.437Z,7688
2019-05-19T05:17:08.899Z,8276
2019-05-19T05:18:11.517Z,10052
2019-05-19T05:19:13.717Z,8448
2019-05-19T05:20:16.277Z,6884
2019-05-19T05:21:18.752Z,7756
2019-05-19T05:22:22.303Z,7516
2019-05-19T05:23:24.795Z,8204
2019-05-19T05:24:28.621Z,8076
2019-05-19T05:25:31.291Z,7980
2019-05-19T05:26:33.857Z,7096
2019-05-19T05:27:36.056Z,6848
2019-05-19T05:28:38.518Z,8248
2019-05-19T05:29:40.712Z,8300
2019-05-19T05:30:42.974Z,6036
2019-05-19T05:31:45.135Z,5316
2019-05-19T05:32:47.340Z,6020
2019-05-19T05:33:49.503Z,7760
2019-05-19T05:34:52.299Z,8196
2019-05-19T05:35:54.582Z,9124
2019-05-19T05:36:56.779Z,9264
2019-05-19T05:37:59.291Z,9912
2019-05-19T05:39:01.457Z,8468
2019-05-19T05:40:03.944Z,9460
2019-05-19T05:41:07.476Z,9848
2019-05-19T05:42:09.659Z,8192
2019-05-19T05:43:11.918Z,9548
2019-05-19T05:44:14.493Z,10892
2019-05-19T05:45:16.729Z,10000
2019-05-19T05:46:18.909Z,10332
2019-05-19T05:47:21.359Z,10028
2019-05-19T05:48:24.292Z,9444
2019-05-19T05:49:26.498Z,9720
2019-05-19T05:50:29.460Z,9836
2019-05-19T05:51:31.906Z,9984
2019-05-19T05:52:38.323Z,10144
2019-05-19T05:53:41.588Z,7956
2019-05-19T05:54:43.809Z,7184
2019-05-19T05:55:46.469Z,8124
2019-05-19T05:56:48.631Z,7080
2019-05-19T05:57:51.354Z,7488
2019-05-19T05:58:53.540Z,7972
2019-05-19T05:59:55.729Z,7200
2019-05-19T06:00:57.915Z,8024
2019-05-19T06:02:00.130Z,7952
2019-05-19T06:03:03.005Z,10192
2019-05-19T06:04:05.490Z,10080
2019-05-19T06:05:07.723Z,10408
2019-05-19T06:06:10.320Z,9796
2019-05-19T06:07:13.188Z,9680
2019-05-19T06:08:15.455Z,8936
2019-05-19T06:09:18.203Z,8020
2019-05-19T06:10:20.446Z,7828
2019-05-19T06:11:22.619Z,7324
2019-05-19T06:12:25.132Z,7668
2019-05-19T06:13:27.327Z,7680
2019-05-19T06:14:29.879Z,7344
2019-05-19T06:15:32.405Z,7144
2019-05-19T06:16:34.608Z,7148
2019-05-19T06:17:37.147Z,7136
2019-05-19T06:18:40.110Z,7156
2019-05-19T06:19:42.311Z,7192
2019-05-19T06:20:44.488Z,7220
2019-05-19T06:21:47.332Z,7272
2019-05-19T06:22:56.224Z,7316
2019-05-19T06:24:00.648Z,7444
2019-05-19T06:25:03.164Z,7528
2019-05-19T06:26:06.970Z,7612
2019-05-19T06:27:09.149Z,7660
2019-05-19T06:28:11.322Z,7764
2019-05-19T06:29:13.531Z,7780
2019-05-19T06:30:15.760Z,7876
2019-05-19T06:31:18.356Z,7768
2019-05-19T06:32:21.049Z,7904
2019-05-19T06:33:23.906Z,8068
2019-05-19T06:34:26.075Z,8308
2019-05-19T06:35:28.744Z,8388
2019-05-19T06:36:30.926Z,8608
2019-05-19T06:37:33.097Z,8980
2019-05-19T06:38:35.610Z,9104
2019-05-19T06:39:39.504Z,9588
2019-05-19T06:40:42.066Z,10208
2019-05-19T06:41:44.287Z,10728
2019-05-19T06:42:46.915Z,11196
2019-05-19T06:43:49.517Z,11720
2019-05-19T06:44:52.086Z,12380
2019-05-19T06:45:54.261Z,12768
2019-05-19T06:46:56.463Z,13056
2019-05-19T06:47:58.915Z,13240
2019-05-19T06:49:01.384Z,13388
2019-05-19T06:50:03.656Z,13204
2019-05-19T06:51:05.846Z,13092
2019-05-19T06:52:08.984Z,13296
2019-05-19T06:53:14.289Z,13348
2019-05-19T06:54:17.733Z,13396
2019-05-19T06:55:20.380Z,13536
2019-05-19T06:56:23.374Z,13728
2019-05-19T06:57:25.628Z,13772
2019-05-19T06:58:27.795Z,13920
2019-05-19T06:59:30.067Z,14068
2019-05-19T07:00:32.525Z,14312
2019-05-19T07:01:35.410Z,14552
2019-05-19T07:02:37.675Z,14676
2019-05-19T07:03:39.845Z,14540
2019-05-19T07:04:42.494Z,14704
2019-05-19T07:05:45.075Z,14808
2019-05-19T07:06:47.287Z,14752
2019-05-19T07:07:50.231Z,14460
2019-05-19T07:08:52.718Z,14024
2019-05-19T07:09:58.179Z,13416
2019-05-19T07:11:01.080Z,12888
2019-05-19T07:12:03.734Z,12328
2019-05-19T07:13:06.198Z,12096
2019-05-19T07:14:08.384Z,11792
2019-05-19T07:15:10.617Z,11704
2019-05-19T07:16:12.781Z,11424
2019-05-19T07:17:15.111Z,11364
2019-05-19T07:18:17.341Z,11556
2019-05-19T07:19:19.542Z,11552
2019-05-19T07:20:21.713Z,11096
2019-05-19T07:21:23.924Z,11436
2019-05-19T07:22:26.202Z,11516
2019-05-19T07:23:28.959Z,11988
2019-05-19T07:24:39.135Z,11952
2019-05-19T07:25:41.354Z,11760
2019-05-19T07:26:43.811Z,11492
2019-05-19T07:27:46.327Z,11352
2019-05-19T07:28:49.283Z,11332
2019-05-19T07:29:51.519Z,11252
2019-05-19T07:30:53.708Z,11136
2019-05-19T07:31:57.090Z,10924
2019-05-19T07:32:59.267Z,10680
2019-05-19T07:34:01.890Z,10472
2019-05-19T07:35:04.974Z,10196
2019-05-19T07:36:07.578Z,10412
2019-05-19T07:37:09.863Z,10504
2019-05-19T07:38:12.041Z,10656
2019-05-19T07:39:14.814Z,10612
2019-05-19T07:40:16.989Z,10580
2019-05-19T07:41:19.768Z,10616
2019-05-19T07:42:22.012Z,10604
2019-05-19T07:43:24.821Z,10580
2019-05-19T07:44:27.752Z,10572
2019-05-19T07:45:29.923Z,10576
2019-05-19T07:46:32.126Z,10536
2019-05-19T07:47:34.378Z,10508
2019-05-19T07:48:37.378Z,10432
2019-05-19T07:49:39.901Z,10380
2019-05-19T07:50:42.507Z,10420
2019-05-19T07:51:45.150Z,10548
2019-05-19T07:52:48.021Z,10652
2019-05-19T07:53:50.979Z,10760
2019-05-19T07:54:53.913Z,10880
2019-05-19T07:55:56.102Z,10920
2019-05-19T07:56:58.403Z,10980
2019-05-19T07:58:01.796Z,11064
2019-05-19T07:59:07.692Z,11140
2019-05-19T08:00:10.763Z,11224
2019-05-19T08:01:13.294Z,11336
2019-05-19T08:02:15.545Z,11420
2019-05-19T08:03:19.009Z,11496
2019-05-19T08:04:21.866Z,11540
2019-05-19T08:05:24.077Z,11584
2019-05-19T08:06:26.251Z,11680
2019-05-19T08:07:28.460Z,11748
2019-05-19T08:08:31.093Z,11876
2019-05-19T08:09:34.044Z,12004
2019-05-19T08:10:36.321Z,12272
2019-05-19T08:11:38.587Z,12500
2019-05-19T08:12:40.773Z,12740
2019-05-19T08:13:43.903Z,12944
2019-05-19T08:14:46.552Z,13164
2019-05-19T08:15:48.770Z,13548
2019-05-19T08:16:51.058Z,13900
2019-05-19T08:17:53.963Z,16888
2019-05-19T08:18:56.546Z,39392
2019-05-19T08:19:59.056Z,70784
2019-05-19T08:21:01.250Z,75264
2019-05-19T08:22:03.523Z,74912
2019-05-19T08:23:06.397Z,72832
2019-05-19T08:24:08.650Z,79136
2019-05-19T08:25:10.843Z,84352
2019-05-19T08:26:13.039Z,86048
2019-05-19T08:27:15.603Z,86752
2019-05-19T08:28:17.778Z,89280
2019-05-19T08:29:20.426Z,93344
2019-05-19T08:30:22.590Z,95488
2019-05-19T08:31:25.141Z,93440
2019-05-19T08:32:28.796Z,92960
2019-05-19T08:33:31.014Z,94176
2019-05-19T08:34:34.310Z,90752
2019-05-19T08:35:36.509Z,90048
2019-05-19T08:36:39.043Z,96160
2019-05-19T08:37:41.259Z,94336
2019-05-19T08:38:43.846Z,88064
2019-05-19T08:39:46.381Z,87552
2019-05-19T08:40:48.598Z,90400
2019-05-19T08:41:52.695Z,89856
2019-05-19T08:42:54.876Z,89920
2019-05-19T08:43:57.248Z,80288
2019-05-19T08:44:59.806Z,78464
2019-05-19T08:46:02.225Z,77440
2019-05-19T08:47:04.694Z,81728
2019-05-19T08:48:06.962Z,85472
2019-05-19T08:49:09.153Z,88256
2019-05-19T08:50:11.639Z,84672
2019-05-19T08:51:14.256Z,88544
2019-05-19T08:52:16.430Z,82592
2019-05-19T08:53:18.696Z,78816
2019-05-19T08:54:20.974Z,78304
2019-05-19T08:55:23.187Z,89440
2019-05-19T08:56:25.813Z,88288
2019-05-19T08:57:28.298Z,90432
2019-05-19T08:58:30.866Z,89408
2019-05-19T08:59:33.350Z,90752
2019-05-19T09:00:38.373Z,91808
2019-05-19T09:01:41.265Z,91808
2019-05-19T09:02:43.756Z,89472
2019-05-19T09:03:46.765Z,93824
2019-05-19T09:04:48.974Z,101984
2019-05-19T09:05:51.835Z,103840
2019-05-19T09:06:54.437Z,101088
2019-05-19T09:07:57.014Z,97216
2019-05-19T09:08:59.290Z,97472
2019-05-19T09:10:02.179Z,98368
2019-05-19T09:11:04.729Z,98304
2019-05-19T09:12:06.964Z,96064
2019-05-19T09:13:09.146Z,96544
2019-05-19T09:14:11.803Z,94880
2019-05-19T09:15:13.993Z,92704
2019-05-19T09:16:16.231Z,91136
2019-05-19T09:17:19.128Z,93760
2019-05-19T09:18:21.375Z,95136
2019-05-19T09:19:23.610Z,95840
2019-05-19T09:20:25.799Z,94144
2019-05-19T09:21:28.524Z,94976
2019-05-19T09:22:32.519Z,89440
2019-05-19T09:23:34.778Z,82752
2019-05-19T09:24:37.517Z,78976
2019-05-19T09:25:40.025Z,78688
2019-05-19T09:26:42.586Z,85888
2019-05-19T09:27:45.160Z,91360
2019-05-19T09:28:47.514Z,95648
2019-05-19T09:29:50.077Z,96992
2019-05-19T09:30:52.366Z,100512
2019-05-19T09:31:54.860Z,99456
2019-05-19T09:32:57.066Z,99744
2019-05-19T09:33:59.745Z,99520
2019-05-19T09:35:02.579Z,97888
2019-05-19T09:36:05.242Z,99488
2019-05-19T09:37:07.496Z,99360
2019-05-19T09:38:09.773Z,98272
2019-05-19T09:39:13.134Z,99808
2019-05-19T09:40:15.718Z,100128
2019-05-19T09:41:19.338Z,101632
2019-05-19T09:42:21.662Z,97856
2019-05-19T09:43:23.969Z,99232
2019-05-19T09:44:26.604Z,101760
2019-05-19T09:45:28.816Z,98624
2019-05-19T09:46:31.261Z,97888
2019-05-19T09:47:33.581Z,70080
2019-05-19T09:48:36.455Z,101824
2019-05-19T09:49:38.741Z,101920
2019-05-19T09:50:42.285Z,99296
2019-05-19T09:51:44.515Z,95872
2019-05-19T09:52:46.731Z,95040
2019-05-19T09:53:49.308Z,97600
2019-05-19T09:54:52.095Z,97856
2019-05-19T09:55:54.378Z,98688
2019-05-19T09:56:56.593Z,99424
2019-05-19T09:57:58.805Z,99840
2019-05-19T09:59:01.326Z,100576
2019-05-19T10:00:03.579Z,102880
2019-05-19T10:01:05.847Z,102496
2019-05-19T10:02:08.335Z,106080
2019-05-19T10:03:11.255Z,106656
2019-05-19T10:04:13.526Z,106496
2019-05-19T10:05:15.721Z,104480
2019-05-19T10:06:18.700Z,102400
2019-05-19T10:07:21.174Z,97600
2019-05-19T10:08:23.507Z,97024
2019-05-19T10:09:25.814Z,95680
2019-05-19T10:10:28.338Z,93280
2019-05-19T10:11:30.903Z,89024
2019-05-19T10:12:33.819Z,93856
2019-05-19T10:13:37.809Z,95392
2019-05-19T10:14:40.551Z,42048
2019-05-19T10:15:43.150Z,18656
2019-05-19T10:16:45.797Z,102944
2019-05-19T10:17:48.569Z,103488
2019-05-19T10:18:51.096Z,105888
2019-05-19T10:19:53.304Z,104096
2019-05-19T10:20:55.581Z,102336
2019-05-19T10:21:57.812Z,100320
2019-05-19T10:22:59.991Z,102048
2019-05-19T10:24:02.646Z,105120
2019-05-19T10:25:20.796Z,108704
2019-05-19T10:26:25.813Z,110528
2019-05-19T10:27:28.386Z,111808
2019-05-19T10:28:30.658Z,29120
2019-05-19T10:29:33.219Z,16244
2019-05-19T10:30:35.704Z,15384
2019-05-19T10:31:37.959Z,15388
2019-05-19T10:32:40.519Z,18596
2019-05-19T10:33:42.814Z,102848
2019-05-19T10:34:45.020Z,104800
2019-05-19T10:35:47.660Z,109184
2019-05-19T10:36:49.918Z,112320
2019-05-19T10:37:52.101Z,114048
2019-05-19T10:38:54.806Z,111392
2019-05-19T10:39:57.085Z,104512
2019-05-19T10:40:59.332Z,103072
2019-05-19T10:42:02.175Z,105312
2019-05-19T10:43:05.763Z,108512
2019-05-19T10:44:07.948Z,107808
2019-05-19T10:45:10.140Z,105728
2019-05-19T10:46:12.353Z,105312
2019-05-19T10:47:14.559Z,106624
2019-05-19T10:48:17.262Z,108960
2019-05-19T10:49:19.472Z,106560
2019-05-19T10:50:21.679Z,104640
2019-05-19T10:51:23.909Z,102144
2019-05-19T10:52:26.521Z,102880
2019-05-19T10:53:29.052Z,106336
2019-05-19T10:54:31.499Z,105824
2019-05-19T10:55:36.348Z,103936
2019-05-19T10:56:39.478Z,100224
2019-05-19T10:57:41.700Z,100352
2019-05-19T10:58:44.658Z,99488
2019-05-19T10:59:47.185Z,99840
2019-05-19T11:00:49.846Z,100928
2019-05-19T11:01:52.081Z,102304
2019-05-19T11:02:54.298Z,102112
2019-05-19T11:03:56.562Z,102016
2019-05-19T11:04:59.421Z,99744
2019-05-19T11:06:02.055Z,99264
2019-05-19T11:07:05.200Z,98240
2019-05-19T11:08:07.467Z,101536
2019-05-19T11:09:09.963Z,105280
2019-05-19T11:10:12.160Z,108608
2019-05-19T11:11:14.382Z,106944
2019-05-19T11:12:16.862Z,107072
2019-05-19T11:13:19.801Z,95936
2019-05-19T11:14:22.114Z,59840
2019-05-19T11:15:24.363Z,95168
2019-05-19T11:16:26.565Z,104320
2019-05-19T11:17:28.786Z,106304
2019-05-19T11:18:31.047Z,105376
2019-05-19T11:19:33.237Z,21408
2019-05-19T11:20:35.518Z,22720
2019-05-19T11:21:37.994Z,108640
2019-05-19T11:22:40.587Z,110016
2019-05-19T11:23:43.091Z,111904
2019-05-19T11:24:45.308Z,106784
2019-05-19T11:25:51.303Z,106048
2019-05-19T11:26:54.717Z,105440
2019-05-19T11:27:56.970Z,106080
2019-05-19T11:28:59.174Z,102336
2019-05-19T11:30:01.388Z,102560
2019-05-19T11:31:03.873Z,103904
2019-05-19T11:32:06.092Z,103200
2019-05-19T11:33:08.426Z,99168
2019-05-19T11:34:10.972Z,59456
2019-05-19T11:35:13.237Z,21472
2019-05-19T11:36:15.467Z,20640
2019-05-19T11:37:17.689Z,19872
2019-05-19T11:38:20.327Z,21280
2019-05-19T11:39:23.058Z,100384
2019-05-19T11:40:25.310Z,98720
2019-05-19T11:41:27.523Z,16940
2019-05-19T11:42:29.850Z,14868
2019-05-19T11:43:32.424Z,15128
2019-05-19T11:44:34.616Z,15000
2019-05-19T11:45:36.895Z,14996
2019-05-19T11:46:39.099Z,15700
2019-05-19T11:47:41.788Z,16624
2019-05-19T11:48:44.027Z,96224
2019-05-19T11:49:46.231Z,103808
2019-05-19T11:50:48.448Z,103328
2019-05-19T11:51:50.653Z,107040
2019-05-19T11:52:52.926Z,108832
2019-05-19T11:53:55.135Z,111392
2019-05-19T11:54:57.384Z,111776
2019-05-19T11:56:06.491Z,109920
2019-05-19T11:57:13.552Z,111648
2019-05-19T11:58:15.750Z,111680
2019-05-19T11:59:17.954Z,114336
2019-05-19T12:00:20.338Z,115072
2019-05-19T12:01:23.686Z,117760
2019-05-19T12:02:25.960Z,118176
2019-05-19T12:03:28.472Z,115264
2019-05-19T12:04:30.653Z,111424
2019-05-19T12:05:32.956Z,101760
2019-05-19T12:06:39.694Z,23552
2019-05-19T12:07:42.326Z,100224
2019-05-19T12:08:44.789Z,114432
2019-05-19T12:09:47.467Z,116256
2019-05-19T12:10:49.680Z,115904
2019-05-19T12:11:52.554Z,109280
2019-05-19T12:12:54.845Z,105792
2019-05-19T12:13:57.047Z,19104
2019-05-19T12:15:00.359Z,92512
2019-05-19T12:16:02.877Z,40064
2019-05-19T12:17:05.622Z,18784
2019-05-19T12:18:10.681Z,16208
2019-05-19T12:19:12.879Z,15428
2019-05-19T12:20:15.472Z,15164
2019-05-19T12:21:17.669Z,16856
2019-05-19T12:22:19.974Z,16576
2019-05-19T12:23:22.198Z,34112
2019-05-19T12:24:24.397Z,101248
2019-05-19T12:25:26.674Z,99968
2019-05-19T12:26:28.882Z,99168
2019-05-19T12:27:31.445Z,99360
2019-05-19T12:28:33.954Z,88256
2019-05-19T12:29:36.225Z,101248
2019-05-19T12:30:38.409Z,102080
2019-05-19T12:31:41.013Z,99328
2019-05-19T12:32:43.685Z,102336
2019-05-19T12:33:51.785Z,41280
2019-05-19T12:34:54.639Z,39200
2019-05-19T12:35:56.852Z,94784
2019-05-19T12:36:59.109Z,47488
2019-05-19T12:38:01.341Z,66080
2019-05-19T12:39:03.561Z,79008
2019-05-19T12:40:06.501Z,34400
2019-05-19T12:41:08.709Z,33120
2019-05-19T12:42:11.291Z,29792
2019-05-19T12:43:13.778Z,93888
2019-05-19T12:44:16.044Z,95328
2019-05-19T12:45:18.955Z,93792
2019-05-19T12:46:21.144Z,94912
2019-05-19T12:47:23.817Z,95840
2019-05-19T12:48:26.049Z,94208
2019-05-19T12:49:28.780Z,83008
2019-05-19T12:50:30.970Z,76416
2019-05-19T12:51:33.186Z,24064
2019-05-19T12:52:35.463Z,20992
2019-05-19T12:53:38.234Z,21184
2019-05-19T12:54:40.850Z,23712
2019-05-19T12:55:45.042Z,25920
2019-05-19T12:56:47.299Z,88832
2019-05-19T12:57:49.519Z,94176
2019-05-19T12:58:51.724Z,91296
2019-05-19T12:59:54.399Z,77280
2019-05-19T13:00:56.666Z,96288
2019-05-19T13:01:58.986Z,93664
2019-05-19T13:03:01.854Z,70400
2019-05-19T13:04:04.980Z,91328
2019-05-19T13:05:07.217Z,94752
2019-05-19T13:06:09.449Z,94240
2019-05-19T13:07:11.655Z,90720
2019-05-19T13:08:13.877Z,74976
2019-05-19T13:09:16.179Z,77216
2019-05-19T13:10:18.681Z,82400
2019-05-19T13:11:21.224Z,68288
2019-05-19T13:12:23.804Z,85120
2019-05-19T13:13:26.302Z,27488
2019-05-19T13:14:28.572Z,29472
2019-05-19T13:15:31.101Z,87360
2019-05-19T13:16:33.311Z,80544
2019-05-19T13:17:35.537Z,51008
2019-05-19T13:18:37.776Z,62496
2019-05-19T13:19:40.187Z,51168
2019-05-19T13:20:43.748Z,91616
2019-05-19T13:21:46.045Z,25984
2019-05-19T13:22:48.271Z,25184
2019-05-19T13:23:50.515Z,88256
2019-05-19T13:24:52.802Z,70976
2019-05-19T13:25:55.411Z,41504
2019-05-19T13:26:57.986Z,64896
2019-05-19T13:28:00.223Z,34048
2019-05-19T13:29:02.792Z,22272
2019-05-19T13:30:05.444Z,31552
2019-05-19T13:31:08.375Z,69792
2019-05-19T13:32:11.662Z,84480
2019-05-19T13:33:13.881Z,18720
2019-05-19T13:34:16.103Z,17220
2019-05-19T13:35:18.293Z,16184
2019-05-19T13:36:20.873Z,16204
2019-05-19T13:37:23.355Z,17308
2019-05-19T13:38:25.853Z,14404
2019-05-19T13:39:28.144Z,12988
2019-05-19T13:40:30.338Z,12984
2019-05-19T13:41:32.917Z,13656
2019-05-19T13:42:35.132Z,14996
2019-05-19T13:43:37.348Z,15760
2019-05-19T13:44:39.934Z,16824
2019-05-19T13:45:42.151Z,19488
2019-05-19T13:46:44.386Z,18648
2019-05-19T13:47:47.162Z,77696
2019-05-19T13:48:49.737Z,76928
2019-05-19T13:49:51.943Z,48832
2019-05-19T13:50:54.169Z,34304
2019-05-19T13:51:56.751Z,20864
2019-05-19T13:52:59.348Z,47584
2019-05-19T13:54:01.580Z,17932
2019-05-19T13:55:03.731Z,17768
2019-05-19T13:56:05.953Z,17716
2019-05-19T13:57:12.075Z,17392
2019-05-19T13:58:16.067Z,17500
2019-05-19T13:59:18.937Z,19040
2019-05-19T14:00:21.085Z,19584